Time;durP1;ratioP1;P1;durP2;ratioP2;P2;SDS_P1;SDS_P2;PMS_P1;PMS_P2;Temp;Humidity;BMP_temperature;BMP_pressure;BME280_temperature;BME280_humidity;BME280_pressure;Samples;Min_cycle;Max_cycle;Signal;HPM_P1;HPM_P2
2023/10/30 00:02:18;;;;;;;18.75;9.52;;;15.30;99.90;;;;;;5164489;28;20113;-73
2023/10/30 00:04:50;;;;;;;14.15;9.40;;;15.40;99.90;;;;;;5164439;28;20037;-72
2023/10/30 00:07:25;;;;;;;13.40;9.25;;;15.30;99.90;;;;;;5163904;28;20045;-73
2023/10/30 00:09:55;;;;;;;10.93;8.63;;;15.50;99.90;;;;;;5164378;28;20487;-73
2023/10/30 00:12:26;;;;;;;11.73;8.65;;;15.50;99.90;;;;;;5163090;28;20046;-71
2023/10/30 00:15:02;;;;;;;11.45;8.93;;;15.50;99.90;;;;;;5163099;28;20413;-73
2023/10/30 00:17:33;;;;;;;13.38;8.52;;;15.40;99.90;;;;;;5163223;28;20026;-71
2023/10/30 00:20:05;;;;;;;10.93;8.30;;;15.40;99.90;;;;;;5162742;28;20022;-73
2023/10/30 00:22:36;;;;;;;9.55;7.75;;;15.40;99.90;;;;;;5163015;28;20121;-73
2023/10/30 00:25:07;;;;;;;9.50;7.38;;;15.40;99.90;;;;;;5163029;28;20102;-71
2023/10/30 00:27:40;;;;;;;11.98;7.80;;;15.50;99.90;;;;;;5146770;28;20057;-71
2023/10/30 00:30:11;;;;;;;8.48;7.20;;;15.40;99.90;;;;;;5164208;28;20027;-73
2023/10/30 00:32:42;;;;;;;9.75;7.88;;;15.50;99.90;;;;;;5163976;28;20089;-71
2023/10/30 00:35:13;;;;;;;15.80;7.72;;;15.20;99.90;;;;;;5164285;28;20463;-72
2023/10/30 00:37:44;;;;;;;11.50;8.00;;;15.30;99.90;;;;;;5164198;28;20015;-71
2023/10/30 00:40:15;;;;;;;12.20;8.35;;;15.40;99.90;;;;;;5164308;28;20019;-71
2023/10/30 00:42:45;;;;;;;12.32;7.95;;;15.40;99.90;;;;;;5164176;28;20102;-73
2023/10/30 00:45:17;;;;;;;9.57;7.38;;;15.40;99.90;;;;;;5146769;28;20025;-72
2023/10/30 00:47:47;;;;;;;14.70;8.00;;;15.40;99.90;;;;;;5164569;28;20073;-73
2023/10/30 00:50:18;;;;;;;10.80;7.63;;;15.50;99.90;;;;;;5163912;28;20550;-71
2023/10/30 00:52:49;;;;;;;10.82;8.13;;;15.50;99.90;;;;;;5163956;28;20483;-71
2023/10/30 00:55:20;;;;;;;9.50;8.13;;;15.40;99.90;;;;;;5163922;28;20023;-70
2023/10/30 00:57:51;;;;;;;9.68;7.85;;;15.50;99.90;;;;;;5165781;28;20037;-73
2023/10/30 01:00:22;;;;;;;11.25;8.48;;;15.40;99.90;;;;;;5167784;28;20051;-71
2023/10/30 01:02:53;;;;;;;12.20;7.43;;;15.60;99.90;;;;;;5167158;28;20061;-73
2023/10/30 01:05:23;;;;;;;12.93;7.88;;;15.50;99.90;;;;;;5167107;28;20026;-71
2023/10/30 01:07:54;;;;;;;11.95;7.00;;;15.60;99.90;;;;;;5166486;28;20054;-73
2023/10/30 01:10:25;;;;;;;18.38;8.25;;;15.60;99.90;;;;;;5166111;28;20140;-72
2023/10/30 01:12:56;;;;;;;11.70;8.45;;;15.50;99.90;;;;;;5165856;28;20050;-73
2023/10/30 01:15:27;;;;;;;11.13;8.07;;;15.60;99.90;;;;;;5166271;28;20418;-72
2023/10/30 01:17:58;;;;;;;12.77;7.90;;;15.60;99.90;;;;;;5166172;28;20027;-72
2023/10/30 01:20:28;;;;;;;11.43;7.60;;;15.60;99.90;;;;;;5165987;28;20022;-72
2023/10/30 01:22:59;;;;;;;10.13;7.20;;;15.60;99.90;;;;;;5166789;28;20027;-70
2023/10/30 01:25:30;;;;;;;13.55;7.90;;;15.60;99.90;;;;;;5167342;28;20033;-71
2023/10/30 01:28:01;;;;;;;9.13;7.10;;;15.60;99.90;;;;;;5167213;28;20022;-71
2023/10/30 01:30:33;;;;;;;10.90;7.55;;;15.60;99.90;;;;;;5166847;28;20010;-71
2023/10/30 01:33:04;;;;;;;17.52;6.78;;;15.70;99.90;;;;;;5167019;28;20053;-71
2023/10/30 01:35:35;;;;;;;11.55;7.22;;;15.50;99.90;;;;;;5167176;28;20026;-70
2023/10/30 01:38:06;;;;;;;10.40;7.50;;;15.40;99.90;;;;;;5167116;28;20030;-72
2023/10/30 01:40:37;;;;;;;12.38;7.93;;;15.50;99.90;;;;;;5166982;28;20038;-71
2023/10/30 01:43:08;;;;;;;11.93;7.55;;;15.50;99.90;;;;;;5167063;28;20114;-72
2023/10/30 01:45:39;;;;;;;10.77;7.70;;;15.60;99.90;;;;;;5166949;28;20034;-71
2023/10/30 01:48:10;;;;;;;9.57;7.45;;;15.70;99.90;;;;;;5166419;28;20173;-71
2023/10/30 01:50:41;;;;;;;13.07;7.72;;;15.70;99.90;;;;;;5166447;28;20050;-74
2023/10/30 01:53:12;;;;;;;9.82;7.63;;;15.80;99.90;;;;;;5166547;28;20505;-71
2023/10/30 01:55:43;;;;;;;9.27;7.25;;;15.80;99.90;;;;;;5166716;28;20108;-71
2023/10/30 01:58:15;;;;;;;11.35;7.10;;;15.70;99.90;;;;;;5166565;28;20238;-73
2023/10/30 02:00:46;;;;;;;13.43;7.65;;;15.80;99.90;;;;;;5148365;28;20487;-71
2023/10/30 02:03:17;;;;;;;11.30;6.82;;;15.80;99.90;;;;;;5166170;28;20432;-73
2023/10/30 02:05:50;;;;;;;10.68;7.13;;;15.90;99.90;;;;;;5165256;28;20030;-72
2023/10/30 02:08:21;;;;;;;12.65;7.78;;;15.80;99.90;;;;;;5164637;28;20430;-72
2023/10/30 02:10:52;;;;;;;9.77;6.97;;;15.80;99.90;;;;;;5147582;28;20072;-71
2023/10/30 02:13:23;;;;;;;12.10;6.93;;;15.90;99.90;;;;;;5164955;28;20034;-71
2023/10/30 02:15:54;;;;;;;9.35;6.85;;;16.00;99.90;;;;;;5165199;28;20026;-71
2023/10/30 02:18:25;;;;;;;7.78;6.45;;;15.90;99.90;;;;;;5165287;28;20034;-73
2023/10/30 02:20:56;;;;;;;10.43;6.70;;;16.00;99.90;;;;;;5166012;28;20050;-73
2023/10/30 02:23:26;;;;;;;10.45;6.38;;;15.90;99.90;;;;;;5166192;28;20085;-71
2023/10/30 02:25:57;;;;;;;10.23;6.70;;;16.00;99.90;;;;;;5166029;28;20023;-70
2023/10/30 02:28:28;;;;;;;9.95;6.57;;;15.90;99.90;;;;;;5166026;28;20026;-71
2023/10/30 02:30:59;;;;;;;8.88;6.00;;;16.00;99.90;;;;;;5165886;28;20370;-72
2023/10/30 02:33:30;;;;;;;14.45;6.93;;;16.00;99.90;;;;;;5165859;28;20049;-73
2023/10/30 02:36:00;;;;;;;9.68;7.03;;;16.00;99.90;;;;;;5148546;28;20034;-73
2023/10/30 02:38:31;;;;;;;10.23;7.07;;;16.10;99.90;;;;;;5165754;28;20363;-73
2023/10/30 02:41:02;;;;;;;8.63;5.60;;;16.00;99.90;;;;;;5165682;28;20023;-71
2023/10/30 02:43:33;;;;;;;7.45;6.70;;;16.10;99.90;;;;;;5165826;28;20030;-71
2023/10/30 02:46:07;;;;;;;10.90;6.45;;;16.00;99.90;;;;;;5165788;28;20022;-72
2023/10/30 02:48:38;;;;;;;8.48;6.50;;;16.10;99.90;;;;;;5165286;28;20038;-71
2023/10/30 02:51:09;;;;;;;6.75;6.05;;;16.00;99.90;;;;;;5148459;28;20047;-70
2023/10/30 02:53:40;;;;;;;6.43;5.82;;;16.10;99.90;;;;;;5165951;28;20038;-71
2023/10/30 02:56:11;;;;;;;11.00;6.43;;;16.00;99.90;;;;;;5165442;28;20471;-72
2023/10/30 02:58:42;;;;;;;6.97;5.93;;;16.10;99.90;;;;;;5165467;28;20097;-73
2023/10/30 03:01:12;;;;;;;7.63;6.75;;;16.00;99.90;;;;;;5164259;28;20072;-73
2023/10/30 03:03:43;;;;;;;10.20;5.75;;;16.00;99.90;;;;;;5163971;28;20054;-73
2023/10/30 03:06:14;;;;;;;8.00;6.07;;;16.20;99.90;;;;;;5164257;28;20548;-73
2023/10/30 03:08:45;;;;;;;10.10;6.43;;;16.00;99.90;;;;;;5164092;28;20766;-72
2023/10/30 03:11:16;;;;;;;10.05;6.25;;;16.10;99.90;;;;;;5163888;28;20034;-73
2023/10/30 03:13:47;;;;;;;8.30;6.40;;;16.10;99.90;;;;;;5146738;28;20115;-72
2023/10/30 03:16:17;;;;;;;10.85;6.68;;;16.10;99.90;;;;;;5147539;28;20034;-72
2023/10/30 03:18:48;;;;;;;13.40;6.68;;;16.20;99.90;;;;;;5164633;28;20035;-71
2023/10/30 03:21:19;;;;;;;8.98;6.13;;;16.10;99.90;;;;;;5164789;28;20537;-71
2023/10/30 03:23:50;;;;;;;7.53;6.05;;;16.10;99.90;;;;;;5164844;28;20036;-71
2023/10/30 03:26:23;;;;;;;8.85;6.50;;;16.20;99.90;;;;;;5164946;28;20030;-73
2023/10/30 03:28:55;;;;;;;9.15;5.82;;;16.20;99.90;;;;;;5164760;28;20019;-71
2023/10/30 03:31:26;;;;;;;9.85;6.35;;;16.20;99.90;;;;;;5164708;28;20026;-73
2023/10/30 03:33:56;;;;;;;10.13;7.05;;;16.00;99.90;;;;;;5147215;28;20030;-70
2023/10/30 03:36:29;;;;;;;7.95;6.55;;;16.10;99.90;;;;;;5164591;28;20030;-70
2023/10/30 03:38:59;;;;;;;8.38;5.90;;;16.10;99.90;;;;;;5164750;28;20023;-71
2023/10/30 03:41:31;;;;;;;7.57;6.30;;;16.10;99.90;;;;;;5164625;28;20076;-71
2023/10/30 03:44:02;;;;;;;10.02;5.97;;;16.20;99.90;;;;;;5147198;28;20084;-71
2023/10/30 03:46:33;;;;;;;11.68;6.15;;;16.30;99.90;;;;;;5164581;28;20030;-71
2023/10/30 03:49:03;;;;;;;10.75;6.22;;;16.30;99.90;;;;;;5164406;28;20103;-73
2023/10/30 03:51:34;;;;;;;8.38;6.15;;;16.10;99.90;;;;;;5164001;28;20467;-71
2023/10/30 03:54:05;;;;;;;12.25;6.50;;;16.20;99.90;;;;;;5164229;28;20072;-72
2023/10/30 03:56:36;;;;;;;8.18;6.18;;;16.20;99.90;;;;;;5163477;28;20469;-73
2023/10/30 03:59:07;;;;;;;8.52;6.10;;;16.30;99.90;;;;;;5163340;28;20030;-72
2023/10/30 04:01:38;;;;;;;9.85;6.43;;;16.20;99.90;;;;;;5163333;28;20084;-73
2023/10/30 04:04:09;;;;;;;11.18;6.90;;;16.20;99.90;;;;;;5163289;28;20053;-71
2023/10/30 04:06:40;;;;;;;7.03;6.38;;;16.20;99.90;;;;;;5163556;28;20018;-72
2023/10/30 04:09:11;;;;;;;7.20;6.45;;;16.20;99.90;;;;;;5162784;28;20766;-73
2023/10/30 04:11:48;;;;;;;9.57;6.72;;;16.30;99.90;;;;;;5163910;28;20019;-71
2023/10/30 04:14:18;;;;;;;11.57;6.72;;;16.30;99.90;;;;;;5146894;28;20495;-71
2023/10/30 04:16:49;;;;;;;14.18;6.55;;;16.20;99.90;;;;;;5164371;28;20033;-71
2023/10/30 04:19:20;;;;;;;10.55;6.53;;;16.10;99.90;;;;;;5163878;28;20034;-71
2023/10/30 04:21:51;;;;;;;12.77;7.03;;;16.10;99.90;;;;;;5146785;28;20097;-73
2023/10/30 04:24:22;;;;;;;12.27;7.22;;;16.10;99.90;;;;;;5164174;28;20034;-71
2023/10/30 04:26:53;;;;;;;12.05;7.13;;;16.10;99.90;;;;;;5164193;28;20470;-70
2023/10/30 04:29:24;;;;;;;9.27;6.88;;;16.10;99.90;;;;;;5146493;28;20038;-72
2023/10/30 04:31:55;;;;;;;14.32;7.18;;;16.10;99.90;;;;;;5164660;28;20069;-72
2023/10/30 04:34:27;;;;;;;13.77;6.95;;;16.30;99.90;;;;;;5150649;28;20503;-73
2023/10/30 04:36:58;;;;;;;8.55;6.65;;;16.20;99.90;;;;;;5168248;28;20023;-71
2023/10/30 04:39:29;;;;;;;8.43;6.50;;;16.30;99.90;;;;;;5167966;28;20101;-73
2023/10/30 04:42:00;;;;;;;13.73;6.93;;;16.20;99.90;;;;;;5168020;28;20564;-73
2023/10/30 04:44:31;;;;;;;11.25;6.15;;;16.20;99.90;;;;;;5150487;28;20363;-71
2023/10/30 04:47:02;;;;;;;9.32;6.80;;;16.30;99.90;;;;;;5167941;28;20041;-70
2023/10/30 04:49:35;;;;;;;11.73;6.43;;;16.30;99.90;;;;;;5166849;28;20022;-70
2023/10/30 04:52:06;;;;;;;7.28;5.80;;;16.30;99.90;;;;;;5167045;28;20634;-71
2023/10/30 04:54:37;;;;;;;13.63;6.78;;;16.30;99.90;;;;;;5166702;28;20034;-71
2023/10/30 04:57:08;;;;;;;12.65;6.32;;;16.30;99.90;;;;;;5166274;28;20030;-73
2023/10/30 04:59:39;;;;;;;10.85;5.32;;;16.30;99.90;;;;;;5149033;28;20201;-73
2023/10/30 05:02:10;;;;;;;12.05;6.45;;;16.30;99.90;;;;;;5149150;28;20037;-73
2023/10/30 05:04:40;;;;;;;9.43;6.03;;;16.40;99.90;;;;;;5166620;28;20122;-73
2023/10/30 05:07:11;;;;;;;9.70;5.90;;;16.30;99.90;;;;;;5166934;28;20022;-73
2023/10/30 05:09:42;;;;;;;13.70;6.30;;;16.50;99.90;;;;;;5167726;28;20439;-71
2023/10/30 05:12:13;;;;;;;11.32;6.60;;;16.40;99.90;;;;;;5167690;28;20441;-71
2023/10/30 05:14:44;;;;;;;9.98;6.30;;;16.40;99.90;;;;;;5167699;28;20062;-71
2023/10/30 05:17:15;;;;;;;15.07;7.32;;;16.40;99.90;;;;;;5167887;28;20030;-70
2023/10/30 05:19:45;;;;;;;11.40;6.30;;;16.60;99.90;;;;;;5150555;28;20442;-72
2023/10/30 05:22:16;;;;;;;9.43;6.75;;;16.60;99.90;;;;;;5168247;28;20042;-71
2023/10/30 05:24:47;;;;;;;10.23;6.22;;;16.60;99.90;;;;;;5167242;28;20030;-71
2023/10/30 05:27:18;;;;;;;10.68;7.05;;;16.60;99.90;;;;;;5167232;28;20073;-70
2023/10/30 05:29:49;;;;;;;14.05;7.30;;;16.60;99.90;;;;;;5167241;28;20026;-71
2023/10/30 05:32:20;;;;;;;8.60;6.70;;;16.70;99.90;;;;;;5149660;28;20034;-71
2023/10/30 05:34:52;;;;;;;9.68;6.82;;;16.70;99.90;;;;;;5167162;28;20038;-74
2023/10/30 05:37:23;;;;;;;12.10;7.55;;;16.80;99.90;;;;;;5166137;28;20018;-73
2023/10/30 05:39:54;;;;;;;11.02;7.43;;;16.90;99.90;;;;;;5166594;28;20028;-73
2023/10/30 05:42:25;;;;;;;11.35;7.78;;;17.00;99.90;;;;;;5148577;28;20367;-75
2023/10/30 05:44:56;;;;;;;15.45;7.38;;;17.00;99.90;;;;;;5164683;28;20026;-74
2023/10/30 05:47:27;;;;;;;20.27;7.15;;;17.10;99.90;;;;;;5166001;28;20015;-75
2023/10/30 05:49:58;;;;;;;13.45;6.93;;;17.20;99.90;;;;;;5147382;28;20026;-75
2023/10/30 05:52:29;;;;;;;13.20;6.75;;;17.30;99.90;;;;;;5165159;28;20038;-73
2023/10/30 05:55:00;;;;;;;13.52;6.75;;;17.20;99.90;;;;;;5147685;28;20033;-73
2023/10/30 05:57:31;;;;;;;16.75;6.68;;;17.30;99.90;;;;;;5165217;28;20029;-74
2023/10/30 06:00:03;;;;;;;10.00;7.07;;;17.40;99.90;;;;;;5165373;28;20117;-76
2023/10/30 06:02:33;;;;;;;10.65;7.10;;;17.50;99.90;;;;;;5165837;28;20462;-75
2023/10/30 06:05:07;;;;;;;13.50;7.22;;;17.50;99.90;;;;;;5148870;28;20117;-74
2023/10/30 06:07:38;;;;;;;11.18;7.50;;;17.60;99.90;;;;;;5166285;28;20094;-73
2023/10/30 06:10:11;;;;;;;12.95;7.50;;;17.80;99.90;;;;;;5148830;28;20121;-72
2023/10/30 06:12:41;;;;;;;11.00;7.47;;;17.80;99.90;;;;;;5166070;28;20042;-73
2023/10/30 06:15:13;;;;;;;12.65;8.00;;;17.80;99.90;;;;;;5166150;28;20042;-75
2023/10/30 06:17:44;;;;;;;11.85;7.38;;;17.90;99.90;;;;;;5166435;28;20026;-73
2023/10/30 06:20:14;;;;;;;11.98;7.68;;;17.90;99.90;;;;;;5166207;28;20034;-73
2023/10/30 06:22:45;;;;;;;10.18;6.43;;;18.10;99.90;;;;;;5166228;28;20680;-75
2023/10/30 06:25:16;;;;;;;10.95;6.55;;;18.10;99.90;;;;;;5166386;28;20505;-75
2023/10/30 06:27:47;;;;;;;13.05;6.90;;;18.20;99.90;;;;;;5166338;28;20026;-73
2023/10/30 06:30:18;;;;;;;9.10;6.43;;;18.20;99.90;;;;;;5166042;28;20042;-74
2023/10/30 06:32:49;;;;;;;14.30;6.50;;;18.40;99.90;;;;;;5166143;28;20026;-73
2023/10/30 06:35:20;;;;;;;13.88;7.03;;;18.40;99.90;;;;;;5165714;28;20032;-73
2023/10/30 06:37:51;;;;;;;13.27;7.22;;;18.60;99.90;;;;;;5165173;28;20038;-73
2023/10/30 06:40:22;;;;;;;9.50;6.88;;;18.80;99.90;;;;;;5147948;28;20022;-74
2023/10/30 06:42:53;;;;;;;12.73;7.38;;;18.90;99.90;;;;;;5146970;28;20520;-75
2023/10/30 06:45:24;;;;;;;18.27;9.73;;;19.00;99.90;;;;;;5164590;28;20023;-73
2023/10/30 06:47:55;;;;;;;16.17;7.40;;;19.10;99.90;;;;;;5164417;28;20137;-75
2023/10/30 06:50:25;;;;;;;10.77;6.90;;;19.20;99.90;;;;;;5164054;28;20042;-76
2023/10/30 06:52:57;;;;;;;14.63;7.60;;;19.30;99.90;;;;;;5164412;28;20519;-74
2023/10/30 06:55:28;;;;;;;11.60;7.25;;;19.40;99.90;;;;;;5146557;28;20049;-75
2023/10/30 06:57:59;;;;;;;11.95;7.30;;;19.40;99.90;;;;;;5147986;28;20030;-75
2023/10/30 07:00:29;;;;;;;11.70;7.80;;;19.50;99.90;;;;;;5165288;28;20026;-73
2023/10/30 07:03:00;;;;;;;16.58;7.03;;;19.60;99.90;;;;;;5165243;28;20030;-73
2023/10/30 07:05:31;;;;;;;14.13;8.02;;;19.70;99.90;;;;;;5165313;28;20038;-76
2023/10/30 07:08:03;;;;;;;9.07;7.97;;;19.60;99.90;;;;;;5165085;28;20027;-73
2023/10/30 07:10:35;;;;;;;12.82;7.50;;;19.70;99.90;;;;;;5165117;28;20682;-73
2023/10/30 07:13:07;;;;;;;10.52;7.38;;;19.70;99.90;;;;;;5165132;28;20056;-75
2023/10/30 07:15:37;;;;;;;13.90;7.75;;;19.90;99.90;;;;;;5147787;28;20378;-73
2023/10/30 07:18:09;;;;;;;19.15;8.18;;;19.90;99.90;;;;;;5165054;28;20029;-73
2023/10/30 07:20:39;;;;;;;13.20;7.03;;;20.00;99.90;;;;;;5164898;28;20038;-76
2023/10/30 07:23:10;;;;;;;15.25;7.40;;;20.00;99.90;;;;;;5165135;28;20354;-73
2023/10/30 07:25:41;;;;;;;15.65;8.68;;;20.00;99.90;;;;;;5165229;28;20033;-75
2023/10/30 07:28:16;;;;;;;13.93;8.40;;;20.30;99.90;;;;;;5165096;28;20105;-75
2023/10/30 07:30:46;;;;;;;15.40;8.45;;;20.20;99.90;;;;;;5164857;28;20027;-75
2023/10/30 07:33:17;;;;;;;16.38;9.52;;;20.40;99.90;;;;;;5164327;28;20042;-76
2023/10/30 07:35:54;;;;;;;20.45;9.68;;;20.50;99.90;;;;;;5147178;28;20398;-73
2023/10/30 07:38:25;;;;;;;17.48;9.98;;;20.70;99.90;;;;;;5163580;28;20995;-75
2023/10/30 07:40:56;;;;;;;19.50;9.60;;;20.90;99.90;;;;;;5163353;28;20116;-75
2023/10/30 07:43:27;;;;;;;20.33;10.55;;;21.10;99.90;;;;;;5163619;28;20509;-74
2023/10/30 07:46:00;;;;;;;15.57;11.18;;;21.20;99.90;;;;;;5163440;28;20046;-75
2023/10/30 07:48:31;;;;;;;17.55;10.27;;;21.10;99.90;;;;;;5163587;28;20027;-75
2023/10/30 07:51:02;;;;;;;23.88;11.80;;;21.10;99.90;;;;;;5163163;28;20077;-74
2023/10/30 07:53:33;;;;;;;21.25;11.73;;;21.50;99.90;;;;;;5164612;28;20044;-73
2023/10/30 07:56:04;;;;;;;17.85;10.73;;;21.40;99.90;;;;;;5147373;28;20018;-73
2023/10/30 07:58:35;;;;;;;15.75;10.57;;;21.50;99.90;;;;;;5164744;28;20054;-73
2023/10/30 08:01:06;;;;;;;18.63;13.80;;;21.50;99.90;;;;;;5164664;28;20493;-74
2023/10/30 08:03:37;;;;;;;22.52;17.80;;;21.60;99.90;;;;;;5147356;28;20049;-73
2023/10/30 08:06:07;;;;;;;20.80;18.98;;;21.60;99.90;;;;;;5164387;28;20019;-74
2023/10/30 08:08:39;;;;;;;25.00;22.67;;;21.60;99.90;;;;;;5147010;28;20022;-72
2023/10/30 08:11:09;;;;;;;21.27;19.08;;;21.50;99.90;;;;;;5164277;28;20066;-72
2023/10/30 08:13:40;;;;;;;21.90;19.67;;;21.80;99.90;;;;;;5164238;28;20045;-75
2023/10/30 08:16:11;;;;;;;20.77;17.42;;;21.90;99.90;;;;;;5146854;28;20023;-74
2023/10/30 08:18:42;;;;;;;18.30;15.80;;;22.00;99.90;;;;;;5164411;28;20088;-73
2023/10/30 08:21:14;;;;;;;16.60;14.50;;;22.00;99.90;;;;;;5164073;28;20034;-72
2023/10/30 08:23:44;;;;;;;14.73;13.15;;;22.10;99.90;;;;;;5164221;28;20031;-73
2023/10/30 08:26:15;;;;;;;18.58;11.50;;;22.20;99.90;;;;;;5164035;28;20116;-73
2023/10/30 08:28:46;;;;;;;16.38;10.27;;;22.50;99.90;;;;;;5163970;28;20034;-73
2023/10/30 08:31:17;;;;;;;15.95;11.35;;;22.60;99.90;;;;;;5163374;28;20031;-74
2023/10/30 08:33:48;;;;;;;16.00;11.95;;;22.50;99.90;;;;;;5163172;28;20038;-71
2023/10/30 08:36:23;;;;;;;21.45;12.00;;;22.60;99.90;;;;;;5162904;28;20033;-72
2023/10/30 08:38:54;;;;;;;15.15;10.75;;;22.70;99.90;;;;;;5162864;28;20038;-74
2023/10/30 08:41:25;;;;;;;15.65;11.10;;;22.80;99.90;;;;;;5162804;28;20027;-74
2023/10/30 08:43:56;;;;;;;12.98;10.35;;;22.80;99.90;;;;;;5162811;28;20039;-73
2023/10/30 08:46:28;;;;;;;25.30;10.48;;;23.00;99.90;;;;;;5145455;28;20490;-74
2023/10/30 08:48:59;;;;;;;17.42;10.93;;;23.10;99.90;;;;;;5146259;28;20494;-73
2023/10/30 08:51:30;;;;;;;16.02;9.38;;;23.10;99.90;;;;;;5146378;28;20136;-70
2023/10/30 08:54:01;;;;;;;15.88;9.85;;;23.00;99.90;;;;;;5146479;28;20046;-70
2023/10/30 08:56:32;;;;;;;17.05;10.38;;;23.00;99.90;;;;;;5164124;28;20023;-71
2023/10/30 08:59:03;;;;;;;15.07;9.73;;;23.00;99.90;;;;;;5146646;28;20057;-74
2023/10/30 09:01:34;;;;;;;12.93;10.15;;;22.90;99.90;;;;;;5163709;28;20489;-73
2023/10/30 09:04:05;;;;;;;15.25;10.68;;;22.90;99.90;;;;;;5163710;28;20098;-72
2023/10/30 09:06:36;;;;;;;14.55;9.55;;;23.20;99.90;;;;;;5163754;28;20065;-72
2023/10/30 09:09:07;;;;;;;16.67;9.68;;;23.40;99.90;;;;;;5163823;28;20472;-73
2023/10/30 09:11:38;;;;;;;16.90;9.23;;;23.20;99.90;;;;;;5163576;28;20491;-73
2023/10/30 09:14:09;;;;;;;16.00;10.63;;;23.40;99.90;;;;;;5163603;28;20027;-72
2023/10/30 09:16:40;;;;;;;14.30;8.02;;;23.50;99.90;;;;;;5163830;28;20030;-71
2023/10/30 09:19:11;;;;;;;16.65;9.00;;;23.60;99.90;;;;;;5148471;28;20031;-73
2023/10/30 09:21:41;;;;;;;16.17;7.53;;;23.70;99.90;;;;;;5167115;28;20039;-73
2023/10/30 09:24:12;;;;;;;16.77;8.55;;;23.70;99.90;;;;;;5167140;28;20026;-70
2023/10/30 09:26:43;;;;;;;16.60;9.10;;;23.70;99.90;;;;;;5166429;28;20037;-73
2023/10/30 09:29:15;;;;;;;18.48;9.48;;;23.50;99.90;;;;;;5149321;28;20533;-73
2023/10/30 09:31:49;;;;;;;18.23;10.80;;;23.50;99.90;;;;;;5165835;28;20073;-73
2023/10/30 09:34:19;;;;;;;12.82;8.50;;;23.60;99.90;;;;;;5165841;28;20027;-73
2023/10/30 09:36:50;;;;;;;16.02;8.82;;;23.60;99.90;;;;;;5165733;28;20042;-71
2023/10/30 09:39:21;;;;;;;13.48;8.18;;;23.70;99.90;;;;;;5165796;28;20030;-71
2023/10/30 09:41:54;;;;;;;20.23;8.70;;;23.70;99.90;;;;;;5165775;28;20026;-70
2023/10/30 09:44:26;;;;;;;13.52;8.10;;;24.00;99.90;;;;;;5166122;28;20591;-73
2023/10/30 09:46:57;;;;;;;16.27;10.88;;;23.90;99.90;;;;;;5166642;28;20105;-72
2023/10/30 09:49:29;;;;;;;18.58;10.00;;;24.10;99.90;;;;;;5166296;28;20037;-71
2023/10/30 09:52:01;;;;;;;13.43;9.82;;;24.00;99.90;;;;;;5148462;28;20718;-74
2023/10/30 09:54:34;;;;;;;15.80;9.63;;;24.10;99.90;;;;;;5166510;28;20542;-71
2023/10/30 09:57:06;;;;;;;16.38;10.38;;;24.00;99.90;;;;;;5166752;28;20490;-71
2023/10/30 09:59:37;;;;;;;13.75;9.75;;;24.00;99.90;;;;;;5166533;28;20097;-71
2023/10/30 10:02:08;;;;;;;13.57;9.77;;;24.10;99.90;;;;;;5166624;28;20118;-71
2023/10/30 10:04:40;;;;;;;16.48;10.45;;;24.10;99.90;;;;;;5166600;28;20026;-71
2023/10/30 10:07:13;;;;;;;13.75;9.07;;;24.30;99.90;;;;;;5148489;28;20134;-73
2023/10/30 10:09:57;;;;;;;14.10;10.50;;;24.30;99.90;;;;;;5165843;28;20081;-73
2023/10/30 10:12:36;;;;;;;16.15;9.82;;;24.00;99.90;;;;;;5165576;28;20479;-71
2023/10/30 10:15:07;;;;;;;14.38;9.20;;;24.30;99.90;;;;;;5166481;28;20033;-71
2023/10/30 10:17:42;;;;;;;14.38;9.25;;;24.30;99.90;;;;;;5166177;28;20102;-71
2023/10/30 10:20:13;;;;;;;15.88;8.65;;;24.20;99.90;;;;;;5166037;28;20034;-73
2023/10/30 10:22:44;;;;;;;13.65;7.70;;;24.40;99.90;;;;;;5165320;28;20030;-74
2023/10/30 10:25:18;;;;;;;12.85;7.72;;;24.60;99.90;;;;;;5165800;28;20027;-73
2023/10/30 10:27:49;;;;;;;15.35;8.65;;;24.50;99.90;;;;;;5164567;28;20394;-74
2023/10/30 10:30:25;;;;;;;13.82;7.90;;;24.30;99.90;;;;;;5164177;28;20774;-73
2023/10/30 10:32:57;;;;;;;13.55;8.27;;;24.40;99.90;;;;;;5147138;28;20046;-73
2023/10/30 10:35:30;;;;;;;12.50;8.73;;;24.30;99.90;;;;;;5164529;28;20026;-73
2023/10/30 10:38:09;;;;;;;14.63;8.52;;;24.40;99.90;;;;;;5164715;28;20487;-73
2023/10/30 10:40:41;;;;;;;14.73;9.55;;;24.50;99.90;;;;;;5165064;28;20034;-72
2023/10/30 10:43:23;;;;;;;11.77;8.25;;;24.40;99.90;;;;;;5166531;28;20061;-71
2023/10/30 10:45:55;;;;;;;15.80;9.77;;;24.60;99.90;;;;;;5165852;28;20034;-73
2023/10/30 10:48:27;;;;;;;18.02;9.52;;;24.70;99.90;;;;;;5165449;28;20034;-74
2023/10/30 10:51:01;;;;;;;12.02;9.02;;;24.40;99.90;;;;;;5165762;28;20061;-71
2023/10/30 10:53:35;;;;;;;14.02;8.98;;;24.00;99.90;;;;;;5165636;28;20092;-74
2023/10/30 10:56:07;;;;;;;14.60;9.18;;;24.40;99.90;;;;;;5165456;28;20030;-73
2023/10/30 10:58:49;;;;;;;16.63;11.05;;;24.70;99.90;;;;;;5165118;28;20466;-71
2023/10/30 11:01:22;;;;;;;14.43;10.30;;;24.50;99.90;;;;;;5165387;28;20892;-73
2023/10/30 11:03:53;;;;;;;14.18;9.48;;;24.40;99.90;;;;;;5147922;28;20023;-71
2023/10/30 11:06:34;;;;;;;14.00;8.82;;;24.40;99.90;;;;;;5165270;28;20097;-72
2023/10/30 11:09:14;;;;;;;17.50;8.55;;;24.30;99.90;;;;;;5165280;28;20834;-71
2023/10/30 11:11:59;;;;;;;18.65;9.52;;;24.40;99.90;;;;;;5147646;28;20033;-71
2023/10/30 11:14:47;;;;;;;14.82;9.60;;;24.40;99.90;;;;;;5165062;28;20026;-70
2023/10/30 11:17:18;;;;;;;10.27;9.07;;;24.40;99.90;;;;;;5164473;28;20050;-74
2023/10/30 11:19:49;;;;;;;16.35;9.75;;;24.60;99.90;;;;;;5164117;28;20064;-73
2023/10/30 11:22:42;;;;;;;14.30;8.45;;;24.70;99.90;;;;;;5164065;28;20030;-73
2023/10/30 11:25:51;;;;;;;14.88;8.50;;;24.80;99.90;;;;;;5162947;28;20030;-73
2023/10/30 11:28:23;;;;;;;12.07;8.45;;;24.60;99.90;;;;;;5114012;28;20030;-72
2023/10/30 11:30:55;;;;;;;14.65;9.23;;;24.30;99.90;;;;;;5163314;28;20037;-73
2023/10/30 11:33:28;;;;;;;14.23;8.35;;;24.40;99.90;;;;;;5163244;28;20517;-74
2023/10/30 11:36:19;;;;;;;12.18;8.68;;;24.20;99.90;;;;;;5163346;28;20022;-73
2023/10/30 11:38:59;;;;;;;11.77;7.72;;;24.40;99.90;;;;;;5164565;28;20040;-74
2023/10/30 11:41:30;;;;;;;13.68;8.55;;;24.40;99.90;;;;;;5164450;28;20029;-70
2023/10/30 11:44:11;;;;;;;12.88;8.57;;;24.60;99.90;;;;;;5164556;28;20482;-72
2023/10/30 11:46:49;;;;;;;13.15;8.43;;;24.60;99.90;;;;;;5164723;28;20438;-71
2023/10/30 11:49:21;;;;;;;13.05;8.32;;;24.70;99.90;;;;;;5165086;28;20463;-73
2023/10/30 11:51:54;;;;;;;16.60;8.35;;;24.60;99.90;;;;;;5164237;28;20054;-70
2023/10/30 11:54:35;;;;;;;12.40;7.75;;;24.60;99.90;;;;;;5164564;28;20512;-72
2023/10/30 11:57:06;;;;;;;14.48;8.52;;;24.60;99.90;;;;;;5147166;28;20054;-73
2023/10/30 11:59:38;;;;;;;16.50;8.48;;;24.80;99.90;;;;;;5164566;28;20034;-71
2023/10/30 12:02:09;;;;;;;13.77;9.00;;;24.90;99.90;;;;;;5147031;28;20062;-74
2023/10/30 12:04:40;;;;;;;12.70;7.63;;;24.60;99.90;;;;;;5146896;28;20081;-74
2023/10/30 12:07:14;;;;;;;11.68;7.90;;;24.40;99.90;;;;;;5164345;28;20414;-73
2023/10/30 12:09:44;;;;;;;13.73;6.70;;;24.30;99.90;;;;;;5164205;28;20031;-71
2023/10/30 12:12:15;;;;;;;14.93;7.65;;;24.40;99.90;;;;;;5146822;28;20410;-72
2023/10/30 12:14:46;;;;;;;12.98;7.38;;;24.50;99.90;;;;;;5163672;28;20042;-74
2023/10/30 12:17:17;;;;;;;17.30;7.93;;;24.50;99.90;;;;;;5163692;28;20018;-74
2023/10/30 12:19:48;;;;;;;13.02;7.20;;;24.70;99.90;;;;;;5163021;28;20085;-72
2023/10/30 12:22:19;;;;;;;13.48;7.65;;;24.40;99.90;;;;;;5145519;28;20097;-73
2023/10/30 12:24:51;;;;;;;15.27;8.02;;;24.20;99.90;;;;;;5162964;28;20470;-73
2023/10/30 12:27:23;;;;;;;13.55;7.72;;;24.40;99.90;;;;;;5163028;28;20033;-72
2023/10/30 12:29:57;;;;;;;14.80;7.85;;;24.70;99.90;;;;;;5162967;28;20462;-72
2023/10/30 12:32:31;;;;;;;17.02;7.93;;;24.20;99.90;;;;;;5163518;28;20093;-71
2023/10/30 12:35:13;;;;;;;15.25;7.45;;;24.20;99.90;;;;;;5164583;28;20030;-73
2023/10/30 12:37:44;;;;;;;13.25;7.57;;;24.30;99.90;;;;;;5164242;28;20030;-71
2023/10/30 12:40:15;;;;;;;13.18;7.25;;;24.00;99.90;;;;;;5164121;28;20034;-74
2023/10/30 12:42:48;;;;;;;14.52;7.88;;;24.20;99.90;;;;;;5164121;28;20018;-73
2023/10/30 12:45:20;;;;;;;14.98;7.10;;;24.10;99.90;;;;;;5163991;28;20101;-71
2023/10/30 12:47:51;;;;;;;14.35;7.45;;;24.30;99.90;;;;;;5164066;28;20089;-72
2023/10/30 12:50:23;;;;;;;15.80;7.43;;;24.30;99.90;;;;;;5146280;28;21221;-74
2023/10/30 12:52:53;;;;;;;11.70;7.18;;;24.50;99.90;;;;;;5147161;28;20122;-74
2023/10/30 12:55:24;;;;;;;13.27;7.72;;;24.70;99.90;;;;;;5167988;28;20530;-74
2023/10/30 12:57:55;;;;;;;12.48;7.85;;;24.50;99.90;;;;;;5168311;28;20028;-74
2023/10/30 13:00:26;;;;;;;14.93;7.78;;;24.60;99.90;;;;;;5168030;28;20030;-73
2023/10/30 13:02:57;;;;;;;12.88;8.27;;;24.30;99.90;;;;;;5150148;28;20030;-71